Time;durP1;ratioP1;P1;durP2;ratioP2;P2;SDS_P1;SDS_P2;PMS_P1;PMS_P2;Temp;Humidity;BMP_temperature;BMP_pressure;BME280_temperature;BME280_humidity;BME280_pressure;Samples;Min_cycle;Max_cycle;Signal;HPM_P1;HPM_P2
2023/11/16 04:00:25;;;;;;;5.30;2.03;;;10.80;99.90;;;;;;6068814;23;20171;-80
2023/11/16 04:02:51;;;;;;;5.72;3.03;;;10.90;99.90;;;;;;4945633;28;20035;-80
2023/11/16 04:05:18;;;;;;;2.55;1.83;;;10.90;99.90;;;;;;4949847;28;20030;-79
2023/11/16 04:07:44;;;;;;;2.67;1.98;;;10.80;99.90;;;;;;4966203;28;20511;-80
2023/11/16 04:10:12;;;;;;;7.07;2.53;;;10.90;99.90;;;;;;4969243;28;20031;-79
2023/11/16 04:12:39;;;;;;;7.68;2.42;;;10.80;99.90;;;;;;4950374;28;20016;-80
2023/11/16 04:15:06;;;;;;;5.28;2.47;;;10.80;99.90;;;;;;4949855;28;20023;-80
2023/11/16 04:17:31;;;;;;;6.60;2.42;;;10.80;99.90;;;;;;4950433;28;20058;-79
2023/11/16 04:19:57;;;;;;;5.90;2.10;;;10.90;99.90;;;;;;4950919;28;20019;-79
2023/11/16 04:22:24;;;;;;;5.93;2.00;;;10.90;99.90;;;;;;4950772;28;20507;-79
2023/11/16 04:24:52;;;;;;;2.65;1.90;;;10.90;99.90;;;;;;4951170;28;20062;-79
2023/11/16 04:27:18;;;;;;;6.72;2.53;;;10.90;99.90;;;;;;4964937;28;20388;-78
2023/11/16 04:29:45;;;;;;;5.22;2.58;;;10.80;99.90;;;;;;4952316;28;20011;-78
2023/11/16 04:32:11;;;;;;;6.60;2.67;;;10.80;99.90;;;;;;4953444;28;20033;-78
2023/11/16 04:34:37;;;;;;;3.80;2.10;;;10.80;99.90;;;;;;4954498;29;20574;-79
2023/11/16 04:37:04;;;;;;;10.43;2.50;;;10.80;99.90;;;;;;4970360;28;20028;-78
2023/11/16 04:39:30;;;;;;;5.18;2.40;;;10.90;99.90;;;;;;4956407;28;20023;-79
2023/11/16 04:41:56;;;;;;;3.20;2.25;;;10.80;99.90;;;;;;4954611;28;20063;-79
2023/11/16 04:44:21;;;;;;;6.50;2.50;;;10.80;99.90;;;;;;4954476;28;20587;-79
2023/11/16 04:46:48;;;;;;;8.18;2.42;;;10.80;99.90;;;;;;4953679;29;20516;-80
2023/11/16 04:49:18;;;;;;;3.45;1.83;;;10.80;99.90;;;;;;4954487;29;20098;-79
2023/11/16 04:51:44;;;;;;;10.88;2.63;;;10.80;99.90;;;;;;4950867;28;20019;-79
2023/11/16 04:54:10;;;;;;;4.88;2.10;;;10.80;99.90;;;;;;4958364;28;20062;-79
2023/11/16 04:56:39;;;;;;;11.60;3.22;;;10.80;99.90;;;;;;4954297;28;20015;-79
2023/11/16 04:59:08;;;;;;;14.73;3.08;;;10.80;99.90;;;;;;4967042;28;20036;-78
2023/11/16 05:01:34;;;;;;;7.45;2.40;;;10.80;99.90;;;;;;4953741;28;20094;-79
2023/11/16 05:04:00;;;;;;;4.55;2.60;;;10.80;99.90;;;;;;4954354;28;20023;-79
2023/11/16 05:06:25;;;;;;;4.35;2.25;;;10.80;99.90;;;;;;4951740;28;20020;-78
2023/11/16 05:08:51;;;;;;;6.40;2.55;;;10.80;99.90;;;;;;4950953;29;20034;-79
2023/11/16 05:11:21;;;;;;;6.95;2.20;;;10.80;99.90;;;;;;4954062;28;20023;-79
2023/11/16 05:13:47;;;;;;;4.72;2.25;;;10.80;99.90;;;;;;4952888;29;20030;-79
2023/11/16 05:16:12;;;;;;;5.03;2.65;;;10.80;99.90;;;;;;4956396;28;20027;-79
2023/11/16 05:18:40;;;;;;;7.55;2.90;;;10.80;99.90;;;;;;4954347;28;20388;-79
2023/11/16 05:21:08;;;;;;;6.30;2.15;;;10.80;99.90;;;;;;4953922;28;20043;-80
2023/11/16 05:23:34;;;;;;;3.58;2.10;;;10.80;99.90;;;;;;4954297;28;20015;-79
2023/11/16 05:26:00;;;;;;;4.13;2.20;;;10.80;99.90;;;;;;4953839;29;20072;-80
2023/11/16 05:28:26;;;;;;;4.88;2.17;;;10.80;99.90;;;;;;4954089;28;20055;-78
2023/11/16 05:30:51;;;;;;;4.25;2.28;;;10.80;99.90;;;;;;4951707;28;20593;-79
2023/11/16 05:33:18;;;;;;;4.65;2.28;;;10.80;99.90;;;;;;4953996;28;20023;-79
2023/11/16 05:35:45;;;;;;;5.72;2.92;;;10.80;99.90;;;;;;4953528;29;20034;-79
2023/11/16 05:38:10;;;;;;;7.13;2.58;;;10.80;99.90;;;;;;4967549;28;20063;-80
2023/11/16 05:40:36;;;;;;;4.32;2.20;;;10.80;99.90;;;;;;4953362;28;20031;-80
2023/11/16 05:43:03;;;;;;;6.85;3.00;;;10.80;99.90;;;;;;4954170;28;20049;-79
2023/11/16 05:45:29;;;;;;;3.03;2.00;;;10.80;99.90;;;;;;4953724;28;20047;-78
2023/11/16 05:47:56;;;;;;;4.25;2.45;;;10.80;99.90;;;;;;4953407;28;20016;-80
2023/11/16 05:50:24;;;;;;;4.88;2.20;;;10.80;99.90;;;;;;4953611;28;20035;-77
2023/11/16 05:52:50;;;;;;;5.72;2.30;;;10.80;99.90;;;;;;4953492;29;20031;-79
2023/11/16 05:55:17;;;;;;;4.43;2.35;;;10.80;99.90;;;;;;4953207;29;20030;-79
2023/11/16 05:57:44;;;;;;;4.18;1.95;;;10.80;99.90;;;;;;4953440;28;20446;-79
2023/11/16 06:00:11;;;;;;;6.05;2.10;;;10.90;99.90;;;;;;4953140;29;20023;-79
2023/11/16 06:02:38;;;;;;;4.40;2.20;;;10.90;99.90;;;;;;4950516;28;20534;-79
2023/11/16 06:05:05;;;;;;;4.32;2.25;;;10.80;99.90;;;;;;4953475;28;20539;-79
2023/11/16 06:07:31;;;;;;;4.90;2.20;;;10.80;99.90;;;;;;4951697;28;20185;-80
2023/11/16 06:09:56;;;;;;;7.18;2.20;;;10.80;99.90;;;;;;4952995;28;20524;-79
2023/11/16 06:12:23;;;;;;;6.18;2.05;;;10.90;99.90;;;;;;4967689;28;20038;-80
2023/11/16 06:14:55;;;;;;;3.63;2.38;;;10.80;99.90;;;;;;4953127;28;20035;-79
2023/11/16 06:17:21;;;;;;;5.75;1.73;;;10.90;99.90;;;;;;4952384;29;20094;-79
2023/11/16 06:19:47;;;;;;;4.80;2.03;;;10.90;99.90;;;;;;4952676;29;20024;-80
2023/11/16 06:22:14;;;;;;;5.88;2.40;;;10.80;99.90;;;;;;4952669;28;20035;-79
2023/11/16 06:24:39;;;;;;;4.95;2.00;;;10.90;99.90;;;;;;4953156;28;20019;-79
2023/11/16 06:27:05;;;;;;;5.75;2.22;;;10.80;99.90;;;;;;4953105;28;20074;-80
2023/11/16 06:29:30;;;;;;;5.60;2.42;;;10.90;99.90;;;;;;4953177;28;20027;-79
2023/11/16 06:31:56;;;;;;;2.42;1.92;;;10.80;99.90;;;;;;4952669;28;20035;-79
2023/11/16 06:34:22;;;;;;;5.25;2.28;;;10.90;99.90;;;;;;4952042;29;20035;-80
2023/11/16 06:36:49;;;;;;;3.35;2.35;;;10.90;99.90;;;;;;4952665;28;20031;-80
2023/11/16 06:39:14;;;;;;;4.60;2.28;;;10.80;99.90;;;;;;4951906;28;20027;-82
2023/11/16 06:41:41;;;;;;;4.47;2.15;;;10.80;99.90;;;;;;4950829;28;20023;-82
2023/11/16 06:44:07;;;;;;;4.68;1.90;;;10.90;99.90;;;;;;4949250;29;20011;-81
2023/11/16 06:46:34;;;;;;;4.75;2.00;;;10.90;99.90;;;;;;4952919;29;20023;-82
2023/11/16 06:49:02;;;;;;;5.50;2.17;;;10.90;99.90;;;;;;4951998;29;20403;-81
2023/11/16 06:51:28;;;;;;;3.10;1.80;;;10.90;99.90;;;;;;4951941;28;20062;-81
2023/11/16 06:53:53;;;;;;;3.50;2.20;;;10.90;99.90;;;;;;4950698;29;20024;-81
2023/11/16 06:56:19;;;;;;;4.25;2.20;;;10.80;99.90;;;;;;4967284;28;20515;-81
2023/11/16 06:58:45;;;;;;;7.82;2.83;;;10.90;99.90;;;;;;4955955;28;20074;-82
2023/11/16 07:01:10;;;;;;;3.72;2.20;;;10.80;99.90;;;;;;4946189;28;20110;-80
2023/11/16 07:03:36;;;;;;;5.63;2.63;;;10.80;99.90;;;;;;4952275;28;20492;-79
2023/11/16 07:06:02;;;;;;;4.93;2.65;;;10.90;99.90;;;;;;4945509;28;20110;-79
2023/11/16 07:08:27;;;;;;;6.07;2.10;;;10.80;99.90;;;;;;4953320;28;20016;-78
2023/11/16 07:10:53;;;;;;;7.82;2.50;;;10.80;99.90;;;;;;4953769;28;20058;-80
2023/11/16 07:13:22;;;;;;;9.75;2.67;;;10.90;99.90;;;;;;4958623;28;20046;-80
2023/11/16 07:15:48;;;;;;;6.00;2.60;;;10.90;99.90;;;;;;4957621;28;20491;-78
2023/11/16 07:18:16;;;;;;;6.00;2.70;;;10.90;99.90;;;;;;4951529;28;20447;-79
2023/11/16 07:20:43;;;;;;;5.88;2.33;;;10.90;99.90;;;;;;4970863;28;20119;-81
2023/11/16 07:23:08;;;;;;;43.70;3.65;;;11.00;99.90;;;;;;4965948;28;20031;-78
2023/11/16 07:25:34;;;;;;;21.92;2.63;;;13.40;99.90;;;;;;4971060;28;20023;-78
2023/11/16 07:27:59;;;;;;;14.32;2.55;;;12.40;99.90;;;;;;4948606;29;20115;-79
2023/11/16 07:30:26;;;;;;;13.20;2.65;;;11.70;99.90;;;;;;4951832;28;20028;-81
2023/11/16 07:32:51;;;;;;;7.07;1.75;;;11.30;99.90;;;;;;4951250;29;20050;-75
2023/11/16 07:35:18;;;;;;;12.27;2.17;;;13.30;99.90;;;;;;4951725;28;20058;-80
2023/11/16 07:37:45;;;;;;;7.40;1.75;;;14.00;99.90;;;;;;4948971;28;20515;-78
2023/11/16 07:40:13;;;;;;;5.25;1.77;;;12.80;99.90;;;;;;4951426;29;20302;-81
2023/11/16 07:42:41;;;;;;;4.75;1.88;;;11.90;99.90;;;;;;4945885;28;20025;-80
2023/11/16 07:45:11;;;;;;;2.72;1.85;;;11.40;99.90;;;;;;4946787;29;20034;-81
2023/11/16 07:47:42;;;;;;;3.05;1.73;;;11.20;99.90;;;;;;4950472;28;20118;-80
2023/11/16 07:50:12;;;;;;;6.18;2.10;;;11.10;99.90;;;;;;4949788;29;20029;-81
2023/11/16 07:52:47;;;;;;;8.77;2.67;;;11.10;99.90;;;;;;4947742;29;20046;-80
2023/11/16 07:55:16;;;;;;;5.90;2.30;;;11.00;99.90;;;;;;4948214;28;20636;-81
2023/11/16 07:57:47;;;;;;;8.10;2.70;;;11.00;99.90;;;;;;4955095;28;20476;-81
2023/11/16 08:00:16;;;;;;;6.53;2.80;;;11.00;99.90;;;;;;4951423;28;20042;-81
2023/11/16 08:05:27;;;;;;;6.72;2.53;;;10.90;99.90;;;;;;4946777;29;20105;-81
2023/11/16 08:07:55;;;;;;;7.00;3.20;;;10.90;99.90;;;;;;4966155;28;20023;-81
2023/11/16 08:10:23;;;;;;;5.28;2.33;;;10.90;99.90;;;;;;4951058;28;20034;-80
2023/11/16 08:12:53;;;;;;;7.63;3.00;;;10.90;99.90;;;;;;4949137;28;20038;-80
2023/11/16 08:15:23;;;;;;;5.85;3.45;;;10.90;99.90;;;;;;4948922;29;20140;-80
2023/11/16 08:17:49;;;;;;;5.45;2.60;;;10.90;99.90;;;;;;4949306;29;20082;-81
2023/11/16 08:20:22;;;;;;;6.00;3.05;;;11.00;99.90;;;;;;4948570;29;20138;-81
2023/11/16 08:22:50;;;;;;;5.10;2.97;;;10.90;99.90;;;;;;4950655;28;20029;-81
2023/11/16 08:25:21;;;;;;;5.20;2.85;;;10.90;99.90;;;;;;4950773;28;20059;-80
2023/11/16 08:27:48;;;;;;;5.07;2.72;;;11.00;99.90;;;;;;4947699;29;20511;-80
2023/11/16 08:30:15;;;;;;;5.30;2.85;;;10.90;99.90;;;;;;4949376;28;20439;-80
2023/11/16 08:32:41;;;;;;;12.38;3.88;;;10.90;99.90;;;;;;4969818;28;20027;-82
2023/11/16 08:35:07;;;;;;;5.65;3.20;;;11.00;99.90;;;;;;4950786;28;20456;-81
2023/11/16 08:37:32;;;;;;;6.75;3.17;;;10.90;99.90;;;;;;4951082;29;20023;-81
2023/11/16 08:39:58;;;;;;;6.57;3.05;;;11.00;99.90;;;;;;4947787;28;20023;-81
2023/11/16 08:42:25;;;;;;;6.05;2.92;;;10.90;99.90;;;;;;4945002;28;20023;-81
2023/11/16 08:44:51;;;;;;;5.78;2.85;;;10.90;99.90;;;;;;4967919;28;20525;-81
2023/11/16 08:47:18;;;;;;;5.28;3.28;;;10.90;99.90;;;;;;4951243;28;20401;-80
2023/11/16 08:49:47;;;;;;;4.68;2.80;;;10.90;99.90;;;;;;4950969;28;20019;-80
2023/11/16 08:52:14;;;;;;;4.68;2.60;;;11.00;99.90;;;;;;4949959;28;20444;-81
2023/11/16 08:54:42;;;;;;;3.63;2.70;;;10.90;99.90;;;;;;4949806;29;20034;-81
2023/11/16 08:57:08;;;;;;;6.70;3.10;;;11.00;99.90;;;;;;4950795;28;20500;-81
2023/11/16 08:59:35;;;;;;;8.98;3.38;;;11.00;99.90;;;;;;4949973;29;20058;-81
2023/11/16 09:02:02;;;;;;;7.65;3.22;;;10.90;99.90;;;;;;4950229;28;20100;-80
2023/11/16 09:04:28;;;;;;;7.35;3.13;;;11.00;99.90;;;;;;4949868;29;20019;-82
2023/11/16 09:06:54;;;;;;;5.45;2.70;;;10.90;99.90;;;;;;4951107;28;20071;-79
2023/11/16 09:09:38;;;;;;;5.25;2.97;;;10.90;99.90;;;;;;4949335;28;20039;-81
2023/11/16 09:12:05;;;;;;;5.50;2.60;;;10.90;99.90;;;;;;4948823;28;20550;-81
2023/11/16 09:14:34;;;;;;;7.65;3.10;;;10.90;99.90;;;;;;4950541;28;20027;-81
2023/11/16 09:17:03;;;;;;;4.18;2.47;;;11.00;99.90;;;;;;4967969;28;20035;-81
2023/11/16 09:19:31;;;;;;;8.73;3.47;;;11.00;99.90;;;;;;4975475;28;20031;-80
2023/11/16 09:22:02;;;;;;;11.95;3.35;;;11.00;99.90;;;;;;4952318;28;20034;-81
2023/11/16 09:24:28;;;;;;;3.67;2.53;;;11.00;99.90;;;;;;4952543;29;20026;-80
2023/11/16 09:26:57;;;;;;;6.18;2.85;;;11.00;99.90;;;;;;4949921;28;20497;-80
2023/11/16 09:29:23;;;;;;;6.53;2.60;;;11.00;99.90;;;;;;4950380;28;20423;-80
2023/11/16 09:31:49;;;;;;;4.43;2.95;;;11.00;99.90;;;;;;4953927;28;20119;-80
2023/11/16 09:34:16;;;;;;;9.13;3.35;;;11.00;99.90;;;;;;4967829;28;20052;-79
2023/11/16 09:36:43;;;;;;;6.47;2.40;;;11.00;99.90;;;;;;4970629;28;20023;-78
2023/11/16 09:39:09;;;;;;;4.78;2.88;;;11.00;99.90;;;;;;4952272;29;20121;-79
2023/11/16 09:41:36;;;;;;;4.35;2.72;;;11.00;99.90;;;;;;4951306;28;20106;-78
2023/11/16 09:44:06;;;;;;;4.75;2.78;;;11.00;99.90;;;;;;4952096;29;20383;-82
2023/11/16 09:46:32;;;;;;;7.82;3.22;;;11.00;99.90;;;;;;4966947;28;20019;-81
2023/11/16 09:49:05;;;;;;;8.50;3.20;;;11.00;99.90;;;;;;4949988;29;20026;-82
2023/11/16 09:51:32;;;;;;;4.63;2.45;;;11.00;99.90;;;;;;4950354;28;20030;-80
2023/11/16 09:54:00;;;;;;;5.25;3.47;;;11.00;99.90;;;;;;4953784;28;20024;-83
2023/11/16 09:56:30;;;;;;;9.82;2.78;;;11.00;99.90;;;;;;4953437;28;20090;-82
2023/11/16 09:59:13;;;;;;;5.72;2.90;;;11.00;99.90;;;;;;4951015;29;20047;-82
2023/11/16 10:01:46;;;;;;;7.72;3.58;;;11.00;99.90;;;;;;4951959;28;20559;-82
2023/11/16 10:04:14;;;;;;;5.40;3.30;;;11.00;99.90;;;;;;4951282;29;20034;-83
2023/11/16 10:06:46;;;;;;;6.10;3.08;;;11.00;99.90;;;;;;4953595;29;20023;-82
2023/11/16 10:09:14;;;;;;;7.30;3.45;;;11.00;99.90;;;;;;4954101;28;20086;-82
2023/11/16 10:11:41;;;;;;;10.55;3.08;;;11.00;99.90;;;;;;4951936;28;20492;-82
2023/11/16 10:14:07;;;;;;;7.18;3.10;;;11.00;99.90;;;;;;4965364;28;20031;-82
2023/11/16 10:16:33;;;;;;;5.07;3.13;;;11.00;99.90;;;;;;4952127;28;20489;-82
2023/11/16 10:18:59;;;;;;;6.55;3.60;;;11.00;99.90;;;;;;4957197;28;20023;-82
2023/11/16 10:21:25;;;;;;;9.45;3.35;;;11.00;99.90;;;;;;4953056;28;20030;-83
2023/11/16 10:23:51;;;;;;;6.30;3.08;;;11.00;99.90;;;;;;4968223;28;20031;-82
2023/11/16 10:26:18;;;;;;;6.72;3.15;;;11.00;99.90;;;;;;4950948;29;20016;-83
2023/11/16 10:28:53;;;;;;;7.82;3.05;;;11.00;99.90;;;;;;4952935;28;20022;-81
2023/11/16 10:31:21;;;;;;;7.32;3.50;;;11.00;99.90;;;;;;4952738;28;20020;-82
2023/11/16 10:33:47;;;;;;;11.30;3.20;;;10.90;99.90;;;;;;4950414;28;20428;-81
2023/11/16 10:36:13;;;;;;;8.32;3.67;;;10.90;99.90;;;;;;4964380;28;20035;-84
2023/11/16 10:38:38;;;;;;;8.48;3.67;;;10.90;99.90;;;;;;4950877;29;20024;-81
2023/11/16 10:41:05;;;;;;;6.68;3.40;;;10.90;99.90;;;;;;4953131;28;20046;-81
2023/11/16 10:43:30;;;;;;;5.47;3.00;;;11.00;99.90;;;;;;4953008;28;20027;-81
2023/11/16 10:45:59;;;;;;;9.45;3.25;;;11.00;99.90;;;;;;4947807;28;20031;-81
2023/11/16 10:48:25;;;;;;;9.50;3.60;;;10.90;99.90;;;;;;4965545;28;20385;-84
2023/11/16 10:50:55;;;;;;;5.72;2.88;;;10.90;99.90;;;;;;4946673;28;20410;-83
2023/11/16 10:53:22;;;;;;;6.57;2.60;;;11.00;99.90;;;;;;4949262;29;20023;-81
2023/11/16 10:55:51;;;;;;;10.57;3.50;;;11.00;99.90;;;;;;4953005;28;20464;-81
2023/11/16 10:58:25;;;;;;;13.13;3.25;;;10.90;99.90;;;;;;4950493;29;20034;-81
2023/11/16 11:00:52;;;;;;;8.93;2.63;;;11.00;99.90;;;;;;4947305;28;20028;-80
2023/11/16 11:03:19;;;;;;;10.18;2.58;;;11.00;99.90;;;;;;4951401;29;20019;-81
2023/11/16 11:05:48;;;;;;;8.32;3.33;;;11.00;99.90;;;;;;4954738;28;20019;-81
2023/11/16 11:08:17;;;;;;;6.10;2.83;;;11.00;99.90;;;;;;4967298;28;20033;-80
2023/11/16 11:10:46;;;;;;;10.07;3.17;;;10.90;99.90;;;;;;4950633;28;20511;-81
2023/11/16 11:13:14;;;;;;;5.88;2.63;;;10.90;99.90;;;;;;4947677;29;20469;-81
2023/11/16 11:15:40;;;;;;;5.90;2.88;;;10.90;99.90;;;;;;4952184;28;20031;-82
2023/11/16 11:18:06;;;;;;;7.88;3.63;;;10.90;99.90;;;;;;4952807;29;20042;-82
2023/11/16 11:20:37;;;;;;;5.75;2.72;;;10.90;99.90;;;;;;4965921;28;20110;-82
2023/11/16 11:23:09;;;;;;;3.45;2.55;;;10.90;99.90;;;;;;4948073;29;20504;-82
2023/11/16 11:25:36;;;;;;;5.57;2.65;;;10.90;99.90;;;;;;4950335;28;20046;-83
2023/11/16 11:28:05;;;;;;;4.88;2.47;;;10.90;99.90;;;;;;4952342;28;20043;-82
2023/11/16 11:30:32;;;;;;;8.68;2.78;;;10.90;99.90;;;;;;4951833;28;20538;-82
2023/11/16 11:33:01;;;;;;;6.35;2.65;;;10.90;99.90;;;;;;4946625;29;20560;-82
2023/11/16 11:35:27;;;;;;;8.35;2.92;;;10.90;99.90;;;;;;4947118;29;20396;-82
2023/11/16 11:37:52;;;;;;;4.22;2.22;;;10.90;99.90;;;;;;4951794;28;20445;-81
2023/11/16 11:40:24;;;;;;;6.30;2.70;;;10.90;99.90;;;;;;4951788;29;20055;-83
2023/11/16 11:42:52;;;;;;;5.88;2.83;;;10.90;99.90;;;;;;4950599;29;20035;-82
2023/11/16 11:45:19;;;;;;;8.85;2.40;;;10.90;99.90;;;;;;4942999;29;20641;-83
2023/11/16 11:47:47;;;;;;;7.10;2.95;;;10.90;99.90;;;;;;4947332;28;20027;-83
2023/11/16 11:50:18;;;;;;;5.95;2.72;;;10.90;99.90;;;;;;4973226;28;20086;-82
2023/11/16 11:52:47;;;;;;;8.70;3.00;;;11.00;99.90;;;;;;4951776;28;20608;-81
2023/11/16 11:55:13;;;;;;;4.80;2.58;;;11.00;99.90;;;;;;4948647;29;20020;-82
2023/11/16 11:57:40;;;;;;;5.25;2.60;;;11.00;99.90;;;;;;4948511;28;20027;-82
2023/11/16 12:00:07;;;;;;;8.45;3.05;;;11.00;99.90;;;;;;4963370;28;20023;-82
2023/11/16 12:02:34;;;;;;;6.10;2.80;;;11.00;99.90;;;;;;4950131;28;20039;-82
2023/11/16 12:04:59;;;;;;;7.75;2.90;;;11.00;99.90;;;;;;4951335;28;20019;-82
2023/11/16 12:07:25;;;;;;;11.45;3.03;;;11.00;99.90;;;;;;4949170;29;20046;-83
2023/11/16 12:09:52;;;;;;;10.20;3.42;;;10.90;99.90;;;;;;4949990;28;20077;-82
2023/11/16 12:12:19;;;;;;;8.25;2.70;;;11.00;99.90;;;;;;4960610;28;20035;-82
2023/11/16 12:14:46;;;;;;;5.78;2.83;;;10.90;99.90;;;;;;4951579;29;20094;-82
2023/11/16 12:17:18;;;;;;;5.32;2.30;;;10.90;99.90;;;;;;4965935;28;20163;-83
2023/11/16 12:19:48;;;;;;;11.15;2.63;;;10.90;99.90;;;;;;4946491;28;20058;-80
2023/11/16 12:22:14;;;;;;;8.93;2.83;;;10.90;99.90;;;;;;4948263;28;20059;-83
2023/11/16 12:24:40;;;;;;;5.10;2.42;;;10.90;99.90;;;;;;4949251;28;20515;-82
2023/11/16 12:27:06;;;;;;;5.53;2.85;;;10.90;99.90;;;;;;4950855;28;20028;-83
2023/11/16 12:29:32;;;;;;;5.03;2.72;;;10.90;99.90;;;;;;4949662;29;20026;-83
2023/11/16 12:31:59;;;;;;;11.55;3.20;;;11.00;99.90;;;;;;4963036;28;20432;-83
2023/11/16 12:34:25;;;;;;;9.10;2.22;;;11.00;99.90;;;;;;4962895;28;20020;-81
2023/11/16 12:36:55;;;;;;;7.65;2.58;;;10.90;99.90;;;;;;4953822;28;20544;-81
2023/11/16 12:39:27;;;;;;;7.03;2.70;;;10.90;99.90;;;;;;4951604;29;20503;-82
2023/11/16 12:41:54;;;;;;;5.72;2.75;;;11.00;99.90;;;;;;4949144;28;20058;-82
2023/11/16 12:44:20;;;;;;;7.18;3.05;;;10.90;99.90;;;;;;4947539;29;20024;-83
2023/11/16 12:46:47;;;;;;;10.85;2.67;;;10.90;99.90;;;;;;4949866;28;20030;-79
2023/11/16 12:49:13;;;;;;;6.72;2.63;;;10.90;99.90;;;;;;4951666;28;20023;-77
2023/11/16 12:51:39;;;;;;;8.50;2.80;;;10.90;99.90;;;;;;4953852;28;20019;-79
2023/11/16 12:54:05;;;;;;;7.35;2.67;;;10.90;99.90;;;;;;4953061;29;20030;-80
2023/11/16 12:56:32;;;;;;;8.43;2.53;;;10.90;99.90;;;;;;4952079;29;20075;-80
2023/11/16 12:58:59;;;;;;;5.68;2.70;;;10.90;99.90;;;;;;4949404;28;20023;-82
2023/11/16 13:01:25;;;;;;;5.05;2.30;;;10.90;99.90;;;;;;4954954;28;20055;-79
2023/11/16 13:03:52;;;;;;;9.88;2.50;;;10.90;99.90;;;;;;4970720;28;20071;-77
2023/11/16 13:06:22;;;;;;;4.72;2.30;;;11.00;99.90;;;;;;4952048;28;20027;-77
2023/11/16 13:08:52;;;;;;;10.57;2.50;;;11.00;99.90;;;;;;4951418;28;20019;-80
2023/11/16 13:11:18;;;;;;;4.45;2.25;;;10.90;99.90;;;;;;4950176;28;20055;-80
2023/11/16 13:13:44;;;;;;;3.90;2.50;;;10.90;99.90;;;;;;4953772;29;20476;-82
2023/11/16 13:16:12;;;;;;;4.88;2.00;;;10.90;99.90;;;;;;4969224;28;20027;-83
2023/11/16 13:18:38;;;;;;;2.72;1.88;;;10.90;99.90;;;;;;4948669;29;20558;-80
2023/11/16 13:21:09;;;;;;;8.73;2.60;;;10.90;99.90;;;;;;4951679;28;20106;-82
2023/11/16 13:23:35;;;;;;;5.75;2.58;;;10.90;99.90;;;;;;4953701;28;20023;-79
2023/11/16 13:26:01;;;;;;;4.00;2.35;;;10.90;99.90;;;;;;4952619;28;20101;-80
2023/11/16 13:28:26;;;;;;;7.00;2.50;;;10.90;99.90;;;;;;4951758;29;20540;-79
2023/11/16 13:30:52;;;;;;;7.05;2.15;;;10.90;99.90;;;;;;4950966;28;20026;-79
2023/11/16 13:33:17;;;;;;;4.25;2.30;;;10.90;99.90;;;;;;4949193;29;20035;-79
2023/11/16 13:35:43;;;;;;;6.15;2.72;;;10.80;99.90;;;;;;4952147;28;20035;-80
2023/11/16 13:38:08;;;;;;;6.85;2.72;;;10.90;99.90;;;;;;4956411;28;20035;-80
2023/11/16 13:40:34;;;;;;;4.85;2.92;;;10.90;99.90;;;;;;4948066;28;20042;-79
2023/11/16 13:43:00;;;;;;;6.55;3.25;;;10.90;99.90;;;;;;4951883;29;20174;-81
2023/11/16 13:45:26;;;;;;;11.20;3.15;;;10.90;99.90;;;;;;4951187;29;20035;-82
2023/11/16 13:47:53;;;;;;;5.18;2.63;;;10.90;99.90;;;;;;4949774;28;20038;-79
2023/11/16 13:50:18;;;;;;;6.20;2.97;;;10.90;99.90;;;;;;4949750;29;20105;-79
2023/11/16 13:52:44;;;;;;;11.60;3.13;;;10.90;99.90;;;;;;4950703;28;20058;-78
2023/11/16 13:55:11;;;;;;;8.25;2.78;;;10.90;99.90;;;;;;4949366;29;20038;-80
2023/11/16 13:57:40;;;;;;;5.68;3.00;;;10.90;99.90;;;;;;4952919;29;20755;-80
2023/11/16 14:00:10;;;;;;;11.13;3.03;;;10.90;99.90;;;;;;4953290;28;20023;-78
2023/11/16 14:02:43;;;;;;;6.88;3.70;;;10.90;99.90;;;;;;4950044;28;20063;-82
2023/11/16 14:05:12;;;;;;;6.43;3.42;;;10.90;99.90;;;;;;4947538;29;20851;-80
2023/11/16 14:07:39;;;;;;;6.78;3.60;;;10.90;99.90;;;;;;4950560;28;20477;-79
2023/11/16 14:10:09;;;;;;;7.28;3.00;;;10.90;99.90;;;;;;4956928;28;20078;-80
2023/11/16 14:12:38;;;;;;;;;;;10.90;99.90;;;;;;4952016;28;20083;-80
2023/11/16 14:15:08;;;;;;;9.60;3.25;;;10.90;99.90;;;;;;4951219;29;19910;-80
2023/11/16 14:17:36;;;;;;;9.35;3.45;;;10.90;99.90;;;;;;4962863;28;20473;-79
2023/11/16 14:20:02;;;;;;;6.18;2.97;;;10.90;99.90;;;;;;4950307;29;20495;-83
2023/11/16 14:22:27;;;;;;;8.85;3.65;;;10.90;99.90;;;;;;4967489;28;20476;-82
2023/11/16 14:24:53;;;;;;;4.95;3.20;;;10.90;99.90;;;;;;4948238;28;20032;-81
2023/11/16 14:27:18;;;;;;;5.88;3.85;;;10.90;99.90;;;;;;4947884;28;20034;-83
2023/11/16 14:29:44;;;;;;;7.95;4.18;;;10.90;99.90;;;;;;4948766;28;20026;-82
2023/11/16 14:32:10;;;;;;;6.82;3.67;;;10.90;99.90;;;;;;4949773;28;20027;-82
2023/11/16 14:34:35;;;;;;;10.32;4.38;;;10.90;99.90;;;;;;4967195;28;20027;-83
2023/11/16 14:37:04;;;;;;;9.68;4.07;;;10.90;99.90;;;;;;4949484;28;20054;-82
2023/11/16 14:39:30;;;;;;;8.45;4.75;;;10.80;99.90;;;;;;4948295;28;20027;-82
2023/11/16 14:41:55;;;;;;;11.88;5.10;;;10.80;99.90;;;;;;4948512;28;20050;-83
2023/11/16 14:44:22;;;;;;;14.52;5.18;;;10.90;99.90;;;;;;4951504;28;20031;-83
2023/11/16 14:46:50;;;;;;;8.50;4.90;;;10.90;99.90;;;;;;4951459;29;20083;-83
2023/11/16 14:49:17;;;;;;;15.63;5.63;;;10.80;99.90;;;;;;4949213;29;20146;-82
2023/11/16 14:51:42;;;;;;;8.48;4.90;;;10.80;99.90;;;;;;4962255;28;20024;-83
2023/11/16 14:54:10;;;;;;;9.23;4.18;;;10.80;99.90;;;;;;4948974;28;20034;-82
2023/11/16 14:56:36;;;;;;;9.27;3.67;;;10.80;99.90;;;;;;4952964;29;20027;-83
2023/11/16 14:59:03;;;;;;;7.30;3.70;;;10.80;99.90;;;;;;4950770;28;20645;-83
2023/11/16 15:01:29;;;;;;;9.80;3.83;;;10.80;99.90;;;;;;4947275;28;20031;-82
2023/11/16 15:03:55;;;;;;;7.75;3.17;;;10.80;99.90;;;;;;4949211;28;20264;-82
2023/11/16 15:06:20;;;;;;;8.27;3.45;;;10.80;99.90;;;;;;4962122;28;20138;-84
2023/11/16 15:08:47;;;;;;;7.82;3.10;;;10.80;99.90;;;;;;4967185;28;20024;-82
2023/11/16 15:11:13;;;;;;;4.38;2.60;;;10.80;99.90;;;;;;4951582;28;20062;-82
2023/11/16 15:13:39;;;;;;;6.80;2.50;;;10.80;99.90;;;;;;4961925;28;20074;-82
2023/11/16 15:16:05;;;;;;;8.60;2.92;;;10.80;99.90;;;;;;4946983;29;20054;-83
2023/11/16 15:18:33;;;;;;;3.80;2.25;;;10.70;99.90;;;;;;4950053;29;20031;-83
2023/11/16 15:20:58;;;;;;;5.88;2.15;;;10.70;99.90;;;;;;4946564;28;20024;-83
2023/11/16 15:23:25;;;;;;;3.67;1.95;;;10.70;99.90;;;;;;4946398;29;20095;-82
2023/11/16 15:25:50;;;;;;;2.58;1.80;;;10.70;99.90;;;;;;4950803;28;20026;-82
2023/11/16 15:28:16;;;;;;;4.38;1.75;;;10.70;99.90;;;;;;4948312;29;20027;-83
2023/11/16 15:30:41;;;;;;;4.57;2.33;;;10.70;99.90;;;;;;4965700;28;20026;-82
2023/11/16 15:33:10;;;;;;;3.13;1.90;;;10.80;99.90;;;;;;4954935;28;20632;-84
2023/11/16 15:35:35;;;;;;;2.30;1.90;;;10.80;99.90;;;;;;4946817;29;20039;-82
2023/11/16 15:38:03;;;;;;;6.15;2.30;;;10.80;99.90;;;;;;4948879;28;20396;-83
2023/11/16 15:40:29;;;;;;;7.05;1.85;;;10.70;99.90;;;;;;4942376;28;20023;-83
2023/11/16 15:42:56;;;;;;;2.33;1.60;;;10.70;99.90;;;;;;4951381;28;20396;-83
2023/11/16 15:45:22;;;;;;;3.13;1.70;;;10.80;99.90;;;;;;4950695;29;20019;-82
2023/11/16 15:47:47;;;;;;;2.65;1.58;;;10.70;99.90;;;;;;4951302;28;20019;-83
2023/11/16 15:50:15;;;;;;;2.10;1.60;;;10.70;99.90;;;;;;4946394;29;20037;-82
2023/11/16 15:52:42;;;;;;;6.00;1.73;;;10.70;99.90;;;;;;4947001;28;20114;-81
2023/11/16 15:55:10;;;;;;;4.70;1.80;;;10.80;99.90;;;;;;4953620;28;20062;-82
2023/11/16 15:57:37;;;;;;;2.53;1.60;;;10.80;99.90;;;;;;4960741;28;20027;-83
2023/11/16 16:00:04;;;;;;;3.85;2.08;;;10.80;99.90;;;;;;4946948;29;20023;-82
2023/11/16 16:02:30;;;;;;;2.92;1.80;;;10.80;99.90;;;;;;4945080;28;20102;-82
2023/11/16 16:04:55;;;;;;;3.85;1.98;;;10.80;99.90;;;;;;4946307;28;20484;-83
2023/11/16 16:07:21;;;;;;;3.83;1.80;;;10.80;99.90;;;;;;4948817;28;20015;-83
2023/11/16 16:09:49;;;;;;;6.68;1.67;;;10.80;99.90;;;;;;4948308;28;20515;-82
2023/11/16 16:12:15;;;;;;;4.60;2.30;;;10.80;99.90;;;;;;4945783;29;20484;-81
2023/11/16 16:14:40;;;;;;;3.42;2.20;;;10.80;99.90;;;;;;4945995;28;20036;-83
2023/11/16 16:17:07;;;;;;;10.48;3.15;;;10.70;99.90;;;;;;4950685;29;20031;-83
2023/11/16 16:19:32;;;;;;;5.60;1.67;;;10.80;99.90;;;;;;4947790;29;20031;-84
2023/11/16 16:21:59;;;;;;;3.60;2.20;;;10.80;99.90;;;;;;4947186;28;20098;-83
2023/11/16 16:24:25;;;;;;;4.75;2.58;;;10.80;99.90;;;;;;4950402;28;20027;-82
2023/11/16 16:26:51;;;;;;;4.93;2.55;;;10.80;99.90;;;;;;4969020;28;20027;-83
2023/11/16 16:29:16;;;;;;;9.57;2.80;;;10.80;99.90;;;;;;4954601;28;20023;-83
2023/11/16 16:31:43;;;;;;;6.63;2.85;;;10.80;99.90;;;;;;4952752;28;20087;-82
2023/11/16 16:34:13;;;;;;;7.93;2.00;;;10.80;99.90;;;;;;4972985;28;20034;-82
2023/11/16 16:36:40;;;;;;;5.45;2.60;;;10.70;99.90;;;;;;4950356;28;20042;-83
2023/11/16 16:39:07;;;;;;;3.50;2.17;;;10.80;99.90;;;;;;4953183;28;20034;-84
2023/11/16 16:41:32;;;;;;;7.05;2.60;;;10.80;99.90;;;;;;4971695;28;20058;-82
2023/11/16 16:43:58;;;;;;;4.03;2.47;;;10.80;99.90;;;;;;4954335;28;20332;-82
2023/11/16 16:46:24;;;;;;;3.30;2.17;;;10.80;99.90;;;;;;4953341;29;20067;-81